Terminal Aerodrome Forecast
Issued by NWS Corpus Christi, TX

Home | Current Version | Previous Version | Text Only | Print | Product List | Glossary On
Versions: 1 2 3 4 5 6 7 8 9 10 11 12
000
FTUS44 KCRP 201700
TAFVCT
TAF
KVCT 201733Z 2018/2118 18014KT P6SM SCT050 SCT250
      TEMPO 2018/2020 BKN050
     FM202100 15017G24KT P6SM SCT050 SCT250
     FM210100 16010KT P6SM FEW025
     FM210900 15006KT P6SM SCT015
      TEMPO 2110/2114 BKN015
     FM211500 17015KT P6SM SCT030=

USA.gov is the U.S. government's official web portal to all federal, state and local government web resources and services.